sensor_id;sensor_type;location;lat;lon;timestamp;P1;durP1;ratioP1;P2;durP2;ratioP2
28587;SDS011;15787;49.662;10.162;2024-03-22T00:00:21;21.35;;;11.90;;
28587;SDS011;15787;49.662;10.162;2024-03-22T00:02:53;25.88;;;13.18;;
28587;SDS011;15787;49.662;10.162;2024-03-22T00:05:26;31.40;;;13.65;;
28587;SDS011;15787;49.662;10.162;2024-03-22T00:07:58;24.85;;;13.20;;
28587;SDS011;15787;49.662;10.162;2024-03-22T00:10:31;30.70;;;13.55;;
28587;SDS011;15787;49.662;10.162;2024-03-22T00:13:02;25.60;;;13.27;;
28587;SDS011;15787;49.662;10.162;2024-03-22T00:15:34;28.35;;;13.63;;
28587;SDS011;15787;49.662;10.162;2024-03-22T00:18:05;22.88;;;12.35;;
28587;SDS011;15787;49.662;10.162;2024-03-22T00:20:39;24.60;;;12.32;;
28587;SDS011;15787;49.662;10.162;2024-03-22T00:23:10;26.23;;;13.20;;
28587;SDS011;15787;49.662;10.162;2024-03-22T00:25:42;28.60;;;12.95;;
28587;SDS011;15787;49.662;10.162;2024-03-22T00:28:14;32.00;;;14.50;;
28587;SDS011;15787;49.662;10.162;2024-03-22T00:30:46;27.33;;;13.27;;
28587;SDS011;15787;49.662;10.162;2024-03-22T00:33:18;27.52;;;14.13;;
28587;SDS011;15787;49.662;10.162;2024-03-22T00:35:51;28.52;;;13.23;;
28587;SDS011;15787;49.662;10.162;2024-03-22T00:38:22;30.25;;;14.57;;
28587;SDS011;15787;49.662;10.162;2024-03-22T00:40:55;24.75;;;12.50;;
28587;SDS011;15787;49.662;10.162;2024-03-22T00:43:27;32.47;;;14.35;;
28587;SDS011;15787;49.662;10.162;2024-03-22T00:45:59;26.17;;;13.07;;
28587;SDS011;15787;49.662;10.162;2024-03-22T00:48:32;25.98;;;13.93;;
28587;SDS011;15787;49.662;10.162;2024-03-22T00:51:07;32.28;;;14.70;;
28587;SDS011;15787;49.662;10.162;2024-03-22T00:53:42;27.95;;;13.65;;
28587;SDS011;15787;49.662;10.162;2024-03-22T00:56:13;31.98;;;13.98;;
28587;SDS011;15787;49.662;10.162;2024-03-22T00:58:45;29.23;;;13.05;;
28587;SDS011;15787;49.662;10.162;2024-03-22T01:01:17;29.95;;;15.05;;
28587;SDS011;15787;49.662;10.162;2024-03-22T01:03:49;32.15;;;15.40;;
28587;SDS011;15787;49.662;10.162;2024-03-22T01:06:22;30.05;;;14.52;;
28587;SDS011;15787;49.662;10.162;2024-03-22T01:08:55;35.63;;;15.40;;
28587;SDS011;15787;49.662;10.162;2024-03-22T01:11:27;27.50;;;13.73;;
28587;SDS011;15787;49.662;10.162;2024-03-22T01:13:58;23.83;;;13.05;;
28587;SDS011;15787;49.662;10.162;2024-03-22T01:16:30;29.08;;;14.35;;
28587;SDS011;15787;49.662;10.162;2024-03-22T01:19:02;28.95;;;14.52;;
28587;SDS011;15787;49.662;10.162;2024-03-22T01:21:36;28.80;;;14.30;;
28587;SDS011;15787;49.662;10.162;2024-03-22T01:24:07;28.00;;;12.80;;
28587;SDS011;15787;49.662;10.162;2024-03-22T01:26:39;27.00;;;14.43;;
28587;SDS011;15787;49.662;10.162;2024-03-22T01:29:13;24.88;;;12.80;;
28587;SDS011;15787;49.662;10.162;2024-03-22T01:31:46;27.10;;;13.20;;
28587;SDS011;15787;49.662;10.162;2024-03-22T01:34:17;28.25;;;13.98;;
28587;SDS011;15787;49.662;10.162;2024-03-22T01:36:51;22.60;;;12.23;;
28587;SDS011;15787;49.662;10.162;2024-03-22T01:39:22;31.00;;;13.73;;
28587;SDS011;15787;49.662;10.162;2024-03-22T01:41:57;27.13;;;13.55;;
28587;SDS011;15787;49.662;10.162;2024-03-22T01:44:28;26.13;;;12.32;;
28587;SDS011;15787;49.662;10.162;2024-03-22T01:47:02;24.95;;;12.10;;
28587;SDS011;15787;49.662;10.162;2024-03-22T01:49:33;26.00;;;13.60;;
28587;SDS011;15787;49.662;10.162;2024-03-22T01:52:07;27.10;;;12.73;;
28587;SDS011;15787;49.662;10.162;2024-03-22T01:54:39;27.70;;;13.10;;
28587;SDS011;15787;49.662;10.162;2024-03-22T01:57:11;28.83;;;14.02;;
28587;SDS011;15787;49.662;10.162;2024-03-22T01:59:42;23.65;;;12.27;;
28587;SDS011;15787;49.662;10.162;2024-03-22T02:02:15;30.13;;;13.13;;
28587;SDS011;15787;49.662;10.162;2024-03-22T02:04:49;28.33;;;13.07;;
28587;SDS011;15787;49.662;10.162;2024-03-22T02:07:23;26.40;;;12.85;;
28587;SDS011;15787;49.662;10.162;2024-03-22T02:09:54;23.50;;;11.70;;
28587;SDS011;15787;49.662;10.162;2024-03-22T02:12:27;25.45;;;12.30;;
28587;SDS011;15787;49.662;10.162;2024-03-22T02:14:59;26.27;;;13.07;;
28587;SDS011;15787;49.662;10.162;2024-03-22T02:17:31;25.83;;;12.35;;
28587;SDS011;15787;49.662;10.162;2024-03-22T02:20:03;28.92;;;13.07;;
28587;SDS011;15787;49.662;10.162;2024-03-22T02:22:38;28.58;;;14.13;;
28587;SDS011;15787;49.662;10.162;2024-03-22T02:25:12;27.38;;;13.52;;
28587;SDS011;15787;49.662;10.162;2024-03-22T02:27:45;28.13;;;14.27;;
28587;SDS011;15787;49.662;10.162;2024-03-22T02:30:16;27.92;;;12.77;;
28587;SDS011;15787;49.662;10.162;2024-03-22T02:32:49;26.70;;;12.65;;
28587;SDS011;15787;49.662;10.162;2024-03-22T02:35:20;29.20;;;14.30;;
28587;SDS011;15787;49.662;10.162;2024-03-22T02:37:53;26.10;;;13.00;;
28587;SDS011;15787;49.662;10.162;2024-03-22T02:40:25;26.80;;;13.50;;
28587;SDS011;15787;49.662;10.162;2024-03-22T02:42:58;29.33;;;13.40;;
28587;SDS011;15787;49.662;10.162;2024-03-22T02:45:29;31.73;;;13.07;;
28587;SDS011;15787;49.662;10.162;2024-03-22T02:48:02;24.48;;;11.75;;
28587;SDS011;15787;49.662;10.162;2024-03-22T02:50:34;26.27;;;13.10;;
28587;SDS011;15787;49.662;10.162;2024-03-22T02:53:06;27.00;;;13.02;;
28587;SDS011;15787;49.662;10.162;2024-03-22T02:55:40;33.97;;;13.93;;
28587;SDS011;15787;49.662;10.162;2024-03-22T02:58:13;26.15;;;12.00;;
28587;SDS011;15787;49.662;10.162;2024-03-22T03:00:44;26.98;;;13.30;;
28587;SDS011;15787;49.662;10.162;2024-03-22T03:03:16;29.70;;;13.52;;
28587;SDS011;15787;49.662;10.162;2024-03-22T03:05:47;26.60;;;12.95;;
28587;SDS011;15787;49.662;10.162;2024-03-22T03:08:19;28.27;;;13.07;;
28587;SDS011;15787;49.662;10.162;2024-03-22T03:10:51;28.75;;;12.98;;
28587;SDS011;15787;49.662;10.162;2024-03-22T03:13:23;28.45;;;12.85;;
28587;SDS011;15787;49.662;10.162;2024-03-22T03:15:55;26.55;;;13.80;;
28587;SDS011;15787;49.662;10.162;2024-03-22T03:18:28;30.65;;;13.65;;
28587;SDS011;15787;49.662;10.162;2024-03-22T03:21:01;26.80;;;13.38;;
28587;SDS011;15787;49.662;10.162;2024-03-22T03:23:31;26.48;;;13.20;;
28587;SDS011;15787;49.662;10.162;2024-03-22T03:26:05;29.00;;;13.20;;
28587;SDS011;15787;49.662;10.162;2024-03-22T03:28:36;27.58;;;13.82;;
28587;SDS011;15787;49.662;10.162;2024-03-22T03:31:09;24.30;;;12.43;;
28587;SDS011;15787;49.662;10.162;2024-03-22T03:33:41;29.85;;;13.57;;
28587;SDS011;15787;49.662;10.162;2024-03-22T03:36:13;27.70;;;12.80;;
28587;SDS011;15787;49.662;10.162;2024-03-22T03:38:44;26.33;;;12.68;;
28587;SDS011;15787;49.662;10.162;2024-03-22T03:41:17;28.02;;;13.10;;
28587;SDS011;15787;49.662;10.162;2024-03-22T03:43:48;26.42;;;13.07;;
28587;SDS011;15787;49.662;10.162;2024-03-22T03:46:21;25.77;;;12.90;;
28587;SDS011;15787;49.662;10.162;2024-03-22T03:48:52;26.30;;;13.13;;
28587;SDS011;15787;49.662;10.162;2024-03-22T03:51:24;26.77;;;12.55;;
28587;SDS011;15787;49.662;10.162;2024-03-22T03:53:55;30.00;;;12.63;;
28587;SDS011;15787;49.662;10.162;2024-03-22T03:56:28;30.45;;;13.15;;
28587;SDS011;15787;49.662;10.162;2024-03-22T03:59:00;25.80;;;12.65;;
28587;SDS011;15787;49.662;10.162;2024-03-22T04:01:32;22.90;;;12.45;;
28587;SDS011;15787;49.662;10.162;2024-03-22T04:04:03;25.25;;;12.43;;
28587;SDS011;15787;49.662;10.162;2024-03-22T04:06:36;24.80;;;12.38;;
28587;SDS011;15787;49.662;10.162;2024-03-22T04:09:07;29.48;;;12.82;;
28587;SDS011;15787;49.662;10.162;2024-03-22T04:11:42;23.33;;;12.43;;
28587;SDS011;15787;49.662;10.162;2024-03-22T04:14:13;28.20;;;13.25;;
28587;SDS011;15787;49.662;10.162;2024-03-22T04:16:45;28.58;;;12.60;;
28587;SDS011;15787;49.662;10.162;2024-03-22T04:19:16;23.65;;;12.65;;
28587;SDS011;15787;49.662;10.162;2024-03-22T04:21:49;23.63;;;11.77;;
28587;SDS011;15787;49.662;10.162;2024-03-22T04:24:21;31.67;;;12.90;;
28587;SDS011;15787;49.662;10.162;2024-03-22T04:26:56;28.73;;;12.88;;
28587;SDS011;15787;49.662;10.162;2024-03-22T04:29:27;28.55;;;12.27;;
28587;SDS011;15787;49.662;10.162;2024-03-22T04:31:59;29.02;;;12.95;;
28587;SDS011;15787;49.662;10.162;2024-03-22T04:34:30;25.55;;;12.07;;
28587;SDS011;15787;49.662;10.162;2024-03-22T04:37:02;24.67;;;12.25;;
28587;SDS011;15787;49.662;10.162;2024-03-22T04:39:34;25.63;;;12.18;;
28587;SDS011;15787;49.662;10.162;2024-03-22T04:42:03;25.17;;;11.57;;
28587;SDS011;15787;49.662;10.162;2024-03-22T04:44:37;25.52;;;11.13;;
28587;SDS011;15787;49.662;10.162;2024-03-22T04:47:11;28.33;;;12.68;;
28587;SDS011;15787;49.662;10.162;2024-03-22T04:49:43;26.88;;;12.10;;
28587;SDS011;15787;49.662;10.162;2024-03-22T04:52:15;26.35;;;13.15;;
28587;SDS011;15787;49.662;10.162;2024-03-22T04:54:47;25.42;;;12.10;;
28587;SDS011;15787;49.662;10.162;2024-03-22T04:57:21;26.27;;;11.70;;
28587;SDS011;15787;49.662;10.162;2024-03-22T04:59:53;25.90;;;11.02;;
28587;SDS011;15787;49.662;10.162;2024-03-22T05:02:24;25.20;;;11.77;;
28587;SDS011;15787;49.662;10.162;2024-03-22T05:04:57;28.80;;;12.15;;
28587;SDS011;15787;49.662;10.162;2024-03-22T05:07:28;25.38;;;11.70;;
28587;SDS011;15787;49.662;10.162;2024-03-22T05:10:01;23.58;;;12.13;;
28587;SDS011;15787;49.662;10.162;2024-03-22T05:12:35;24.08;;;11.38;;
28587;SDS011;15787;49.662;10.162;2024-03-22T05:15:08;24.33;;;11.80;;
28587;SDS011;15787;49.662;10.162;2024-03-22T05:17:40;26.17;;;12.50;;
28587;SDS011;15787;49.662;10.162;2024-03-22T05:20:13;25.60;;;11.77;;
28587;SDS011;15787;49.662;10.162;2024-03-22T05:22:45;25.95;;;11.90;;
28587;SDS011;15787;49.662;10.162;2024-03-22T05:25:18;23.50;;;11.30;;
28587;SDS011;15787;49.662;10.162;2024-03-22T05:27:50;29.65;;;12.93;;
28587;SDS011;15787;49.662;10.162;2024-03-22T05:30:23;26.80;;;12.43;;
28587;SDS011;15787;49.662;10.162;2024-03-22T05:32:54;26.20;;;12.35;;
28587;SDS011;15787;49.662;10.162;2024-03-22T05:35:26;29.88;;;13.18;;
28587;SDS011;15787;49.662;10.162;2024-03-22T05:37:57;25.85;;;12.25;;
28587;SDS011;15787;49.662;10.162;2024-03-22T05:40:30;26.92;;;13.05;;
28587;SDS011;15787;49.662;10.162;2024-03-22T05:43:03;24.10;;;12.50;;
28587;SDS011;15787;49.662;10.162;2024-03-22T05:45:36;26.60;;;12.27;;
28587;SDS011;15787;49.662;10.162;2024-03-22T05:48:07;29.52;;;12.40;;
28587;SDS011;15787;49.662;10.162;2024-03-22T05:50:40;22.63;;;11.55;;
28587;SDS011;15787;49.662;10.162;2024-03-22T05:53:12;26.42;;;12.52;;
28587;SDS011;15787;49.662;10.162;2024-03-22T05:55:44;28.63;;;13.23;;
28587;SDS011;15787;49.662;10.162;2024-03-22T05:58:16;26.77;;;12.77;;
28587;SDS011;15787;49.662;10.162;2024-03-22T06:00:50;29.20;;;13.88;;
28587;SDS011;15787;49.662;10.162;2024-03-22T06:03:21;26.90;;;13.27;;
28587;SDS011;15787;49.662;10.162;2024-03-22T06:05:54;27.83;;;14.45;;
28587;SDS011;15787;49.662;10.162;2024-03-22T06:08:27;37.30;;;15.43;;
28587;SDS011;15787;49.662;10.162;2024-03-22T06:10:59;30.17;;;14.52;;
28587;SDS011;15787;49.662;10.162;2024-03-22T06:13:31;32.38;;;14.88;;
28587;SDS011;15787;49.662;10.162;2024-03-22T06:16:04;37.75;;;17.42;;
28587;SDS011;15787;49.662;10.162;2024-03-22T06:18:36;33.53;;;15.50;;
28587;SDS011;15787;49.662;10.162;2024-03-22T06:21:08;35.28;;;16.00;;
28587;SDS011;15787;49.662;10.162;2024-03-22T06:23:39;29.95;;;15.13;;
28587;SDS011;15787;49.662;10.162;2024-03-22T06:26:11;29.48;;;14.55;;
28587;SDS011;15787;49.662;10.162;2024-03-22T06:28:44;34.95;;;17.50;;
28587;SDS011;15787;49.662;10.162;2024-03-22T06:31:17;36.55;;;17.13;;
28587;SDS011;15787;49.662;10.162;2024-03-22T06:33:48;25.25;;;12.38;;
28587;SDS011;15787;49.662;10.162;2024-03-22T06:36:20;32.92;;;14.52;;
28587;SDS011;15787;49.662;10.162;2024-03-22T06:38:53;41.47;;;17.70;;
28587;SDS011;15787;49.662;10.162;2024-03-22T06:41:25;43.55;;;19.95;;
28587;SDS011;15787;49.662;10.162;2024-03-22T06:43:57;38.60;;;17.42;;
28587;SDS011;15787;49.662;10.162;2024-03-22T06:46:30;33.63;;;15.77;;
28587;SDS011;15787;49.662;10.162;2024-03-22T06:49:01;29.02;;;12.95;;
28587;SDS011;15787;49.662;10.162;2024-03-22T06:51:34;23.42;;;11.80;;
28587;SDS011;15787;49.662;10.162;2024-03-22T06:54:05;24.13;;;11.00;;
28587;SDS011;15787;49.662;10.162;2024-03-22T06:56:37;28.25;;;13.73;;
28587;SDS011;15787;49.662;10.162;2024-03-22T06:59:09;25.13;;;12.80;;
28587;SDS011;15787;49.662;10.162;2024-03-22T07:01:41;30.92;;;15.20;;
28587;SDS011;15787;49.662;10.162;2024-03-22T07:04:12;41.78;;;17.17;;
28587;SDS011;15787;49.662;10.162;2024-03-22T07:06:44;35.50;;;16.40;;
28587;SDS011;15787;49.662;10.162;2024-03-22T07:09:16;21.00;;;10.27;;
28587;SDS011;15787;49.662;10.162;2024-03-22T07:11:48;40.33;;;16.65;;
28587;SDS011;15787;49.662;10.162;2024-03-22T07:14:20;45.28;;;19.98;;
28587;SDS011;15787;49.662;10.162;2024-03-22T07:16:55;48.00;;;21.27;;
28587;SDS011;15787;49.662;10.162;2024-03-22T07:19:26;40.85;;;18.48;;
28587;SDS011;15787;49.662;10.162;2024-03-22T07:21:59;38.40;;;16.25;;
28587;SDS011;15787;49.662;10.162;2024-03-22T07:24:30;37.35;;;17.27;;
28587;SDS011;15787;49.662;10.162;2024-03-22T07:27:03;37.88;;;16.60;;
28587;SDS011;15787;49.662;10.162;2024-03-22T07:29:35;38.67;;;16.48;;
28587;SDS011;15787;49.662;10.162;2024-03-22T07:32:08;37.15;;;16.35;;
28587;SDS011;15787;49.662;10.162;2024-03-22T07:34:39;33.20;;;16.00;;
28587;SDS011;15787;49.662;10.162;2024-03-22T07:37:13;31.42;;;15.98;;
28587;SDS011;15787;49.662;10.162;2024-03-22T07:39:44;34.50;;;17.73;;
28587;SDS011;15787;49.662;10.162;2024-03-22T07:42:16;32.05;;;15.90;;
28587;SDS011;15787;49.662;10.162;2024-03-22T07:44:49;27.75;;;14.80;;
28587;SDS011;15787;49.662;10.162;2024-03-22T07:47:21;28.85;;;14.38;;
28587;SDS011;15787;49.662;10.162;2024-03-22T07:49:52;24.70;;;12.35;;
28587;SDS011;15787;49.662;10.162;2024-03-22T07:52:25;19.38;;;10.90;;
28587;SDS011;15787;49.662;10.162;2024-03-22T07:54:56;25.60;;;11.60;;
28587;SDS011;15787;49.662;10.162;2024-03-22T07:57:28;18.45;;;10.23;;
28587;SDS011;15787;49.662;10.162;2024-03-22T08:00:02;19.45;;;10.23;;
28587;SDS011;15787;49.662;10.162;2024-03-22T08:02:42;17.73;;;10.20;;
28587;SDS011;15787;49.662;10.162;2024-03-22T08:05:13;22.88;;;11.10;;
28587;SDS011;15787;49.662;10.162;2024-03-22T08:07:45;19.38;;;11.70;;
28587;SDS011;15787;49.662;10.162;2024-03-22T08:10:17;18.45;;;10.60;;
28587;SDS011;15787;49.662;10.162;2024-03-22T08:12:49;19.92;;;10.80;;
28587;SDS011;15787;49.662;10.162;2024-03-22T08:15:22;19.70;;;11.50;;
28587;SDS011;15787;49.662;10.162;2024-03-22T08:17:54;18.38;;;10.82;;
28587;SDS011;15787;49.662;10.162;2024-03-22T08:20:27;20.80;;;11.15;;
28587;SDS011;15787;49.662;10.162;2024-03-22T08:23:00;21.75;;;11.65;;
28587;SDS011;15787;49.662;10.162;2024-03-22T08:25:32;18.25;;;10.50;;
28587;SDS011;15787;49.662;10.162;2024-03-22T08:28:04;18.98;;;10.43;;
28587;SDS011;15787;49.662;10.162;2024-03-22T08:30:38;17.33;;;10.30;;
28587;SDS011;15787;49.662;10.162;2024-03-22T08:33:10;21.25;;;11.35;;
28587;SDS011;15787;49.662;10.162;2024-03-22T08:35:41;17.98;;;11.07;;
28587;SDS011;15787;49.662;10.162;2024-03-22T08:38:13;18.05;;;11.10;;
28587;SDS011;15787;49.662;10.162;2024-03-22T08:40:45;20.38;;;10.38;;
28587;SDS011;15787;49.662;10.162;2024-03-22T08:43:18;18.65;;;10.23;;
28587;SDS011;15787;49.662;10.162;2024-03-22T08:45:50;18.42;;;11.13;;
28587;SDS011;15787;49.662;10.162;2024-03-22T08:48:23;18.88;;;10.55;;
28587;SDS011;15787;49.662;10.162;2024-03-22T08:50:54;17.10;;;10.80;;
28587;SDS011;15787;49.662;10.162;2024-03-22T08:53:26;19.33;;;9.88;;
28587;SDS011;15787;49.662;10.162;2024-03-22T08:55:57;16.85;;;9.25;;
28587;SDS011;15787;49.662;10.162;2024-03-22T08:58:29;14.95;;;8.55;;
28587;SDS011;15787;49.662;10.162;2024-03-22T09:01:02;15.00;;;9.02;;
28587;SDS011;15787;49.662;10.162;2024-03-22T09:03:36;15.90;;;9.13;;
28587;SDS011;15787;49.662;10.162;2024-03-22T09:06:07;12.20;;;8.05;;
28587;SDS011;15787;49.662;10.162;2024-03-22T09:08:39;11.88;;;7.65;;
28587;SDS011;15787;49.662;10.162;2024-03-22T09:11:10;12.13;;;6.47;;
28587;SDS011;15787;49.662;10.162;2024-03-22T09:13:43;9.77;;;5.80;;
28587;SDS011;15787;49.662;10.162;2024-03-22T09:16:21;11.02;;;5.78;;
28587;SDS011;15787;49.662;10.162;2024-03-22T09:18:53;18.67;;;7.10;;
28587;SDS011;15787;49.662;10.162;2024-03-22T09:21:24;10.75;;;6.53;;
28587;SDS011;15787;49.662;10.162;2024-03-22T09:23:56;9.48;;;5.78;;
28587;SDS011;15787;49.662;10.162;2024-03-22T09:26:28;9.32;;;5.50;;
28587;SDS011;15787;49.662;10.162;2024-03-22T09:28:59;10.90;;;6.10;;
28587;SDS011;15787;49.662;10.162;2024-03-22T09:31:32;9.35;;;5.45;;
28587;SDS011;15787;49.662;10.162;2024-03-22T09:34:04;9.05;;;6.00;;
28587;SDS011;15787;49.662;10.162;2024-03-22T09:36:36;10.25;;;6.13;;
28587;SDS011;15787;49.662;10.162;2024-03-22T09:39:09;10.85;;;6.25;;
28587;SDS011;15787;49.662;10.162;2024-03-22T09:41:42;11.35;;;5.50;;
28587;SDS011;15787;49.662;10.162;2024-03-22T09:44:15;8.55;;;4.93;;
28587;SDS011;15787;49.662;10.162;2024-03-22T09:46:51;8.48;;;5.00;;
28587;SDS011;15787;49.662;10.162;2024-03-22T09:49:24;7.60;;;4.90;;
28587;SDS011;15787;49.662;10.162;2024-03-22T09:51:55;9.93;;;6.50;;
28587;SDS011;15787;49.662;10.162;2024-03-22T09:54:28;7.90;;;4.25;;
28587;SDS011;15787;49.662;10.162;2024-03-22T09:56:59;8.10;;;4.45;;
28587;SDS011;15787;49.662;10.162;2024-03-22T09:59:33;7.40;;;4.00;;
28587;SDS011;15787;49.662;10.162;2024-03-22T10:02:06;8.40;;;4.50;;
28587;SDS011;15787;49.662;10.162;2024-03-22T10:04:42;8.43;;;4.60;;
28587;SDS011;15787;49.662;10.162;2024-03-22T10:07:14;9.30;;;4.53;;
28587;SDS011;15787;49.662;10.162;2024-03-22T10:09:46;5.55;;;4.07;;
28587;SDS011;15787;49.662;10.162;2024-03-22T10:12:17;6.63;;;4.20;;
28587;SDS011;15787;49.662;10.162;2024-03-22T10:14:49;6.18;;;3.83;;
28587;SDS011;15787;49.662;10.162;2024-03-22T10:17:22;8.73;;;4.20;;
28587;SDS011;15787;49.662;10.162;2024-03-22T10:19:54;5.30;;;3.25;;
28587;SDS011;15787;49.662;10.162;2024-03-22T10:22:25;6.85;;;3.58;;
28587;SDS011;15787;49.662;10.162;2024-03-22T10:24:58;6.53;;;3.50;;
28587;SDS011;15787;49.662;10.162;2024-03-22T10:27:31;6.35;;;3.50;;
28587;SDS011;15787;49.662;10.162;2024-03-22T10:30:04;5.40;;;3.67;;
28587;SDS011;15787;49.662;10.162;2024-03-22T10:32:40;5.53;;;3.58;;
28587;SDS011;15787;49.662;10.162;2024-03-22T10:35:14;5.55;;;2.70;;
28587;SDS011;15787;49.662;10.162;2024-03-22T10:37:46;5.47;;;3.10;;
28587;SDS011;15787;49.662;10.162;2024-03-22T10:40:19;5.00;;;2.47;;
28587;SDS011;15787;49.662;10.162;2024-03-22T10:42:51;3.90;;;2.40;;
28587;SDS011;15787;49.662;10.162;2024-03-22T10:45:24;3.67;;;2.15;;
28587;SDS011;15787;49.662;10.162;2024-03-22T10:47:59;3.20;;;2.13;;
28587;SDS011;15787;49.662;10.162;2024-03-22T10:50:34;4.38;;;2.55;;
28587;SDS011;15787;49.662;10.162;2024-03-22T10:53:11;4.97;;;2.60;;
28587;SDS011;15787;49.662;10.162;2024-03-22T10:55:47;4.63;;;2.35;;
28587;SDS011;15787;49.662;10.162;2024-03-22T10:58:20;4.97;;;2.72;;
28587;SDS011;15787;49.662;10.162;2024-03-22T11:00:54;4.45;;;2.70;;
28587;SDS011;15787;49.662;10.162;2024-03-22T11:03:28;3.55;;;2.30;;
28587;SDS011;15787;49.662;10.162;2024-03-22T11:06:02;3.65;;;2.22;;
28587;SDS011;15787;49.662;10.162;2024-03-22T11:08:38;3.15;;;2.22;;
28587;SDS011;15787;49.662;10.162;2024-03-22T11:11:10;4.10;;;2.38;;
28587;SDS011;15787;49.662;10.162;2024-03-22T11:13:42;4.47;;;2.25;;
28587;SDS011;15787;49.662;10.162;2024-03-22T11:16:14;3.20;;;2.00;;
28587;SDS011;15787;49.662;10.162;2024-03-22T11:18:47;5.60;;;2.40;;
28587;SDS011;15787;49.662;10.162;2024-03-22T11:21:20;4.28;;;1.80;;
28587;SDS011;15787;49.662;10.162;2024-03-22T11:23:50;3.67;;;1.88;;
28587;SDS011;15787;49.662;10.162;2024-03-22T11:26:23;4.63;;;1.80;;
28587;SDS011;15787;49.662;10.162;2024-03-22T11:28:56;3.03;;;2.00;;
28587;SDS011;15787;49.662;10.162;2024-03-22T11:31:27;4.38;;;2.88;;
28587;SDS011;15787;49.662;10.162;2024-03-22T11:34:01;5.10;;;1.95;;
28587;SDS011;15787;49.662;10.162;2024-03-22T11:36:35;2.65;;;1.50;;
28587;SDS011;15787;49.662;10.162;2024-03-22T11:39:07;3.60;;;1.48;;
28587;SDS011;15787;49.662;10.162;2024-03-22T11:41:38;2.92;;;1.40;;
28587;SDS011;15787;49.662;10.162;2024-03-22T11:44:11;5.40;;;1.10;;
28587;SDS011;15787;49.662;10.162;2024-03-22T11:46:43;4.10;;;1.20;;
28587;SDS011;15787;49.662;10.162;2024-03-22T11:49:17;2.65;;;1.20;;
28587;SDS011;15787;49.662;10.162;2024-03-22T11:51:51;2.42;;;1.55;;
28587;SDS011;15787;49.662;10.162;2024-03-22T11:54:23;2.30;;;1.10;;
28587;SDS011;15787;49.662;10.162;2024-03-22T11:56:56;3.05;;;1.05;;
28587;SDS011;15787;49.662;10.162;2024-03-22T11:59:29;1.35;;;1.00;;
28587;SDS011;15787;49.662;10.162;2024-03-22T12:02:00;1.73;;;0.98;;
28587;SDS011;15787;49.662;10.162;2024-03-22T12:04:34;5.40;;;1.98;;
28587;SDS011;15787;49.662;10.162;2024-03-22T12:11:18;2.95;;;1.08;;
28587;SDS011;15787;49.662;10.162;2024-03-22T12:13:52;3.67;;;1.45;;
28587;SDS011;15787;49.662;10.162;2024-03-22T12:16:23;2.80;;;1.55;;
28587;SDS011;15787;49.662;10.162;2024-03-22T12:18:56;2.55;;;1.40;;
28587;SDS011;15787;49.662;10.162;2024-03-22T12:21:29;3.60;;;1.27;;
28587;SDS011;15787;49.662;10.162;2024-03-22T12:24:03;2.83;;;1.58;;
28587;SDS011;15787;49.662;10.162;2024-03-22T12:26:34;6.47;;;2.00;;
28587;SDS011;15787;49.662;10.162;2024-03-22T12:29:06;6.63;;;2.00;;
28587;SDS011;15787;49.662;10.162;2024-03-22T12:31:37;4.90;;;3.40;;
28587;SDS011;15787;49.662;10.162;2024-03-22T12:34:11;6.53;;;2.80;;
28587;SDS011;15787;49.662;10.162;2024-03-22T12:36:43;4.78;;;3.03;;
28587;SDS011;15787;49.662;10.162;2024-03-22T12:39:15;4.45;;;3.03;;
28587;SDS011;15787;49.662;10.162;2024-03-22T12:41:47;6.50;;;3.45;;
28587;SDS011;15787;49.662;10.162;2024-03-22T12:44:19;6.55;;;3.13;;
28587;SDS011;15787;49.662;10.162;2024-03-22T12:46:51;5.78;;;3.03;;
28587;SDS011;15787;49.662;10.162;2024-03-22T12:49:25;5.72;;;2.78;;
28587;SDS011;15787;49.662;10.162;2024-03-22T12:51:57;4.70;;;3.00;;
28587;SDS011;15787;49.662;10.162;2024-03-22T12:54:29;5.55;;;2.60;;
28587;SDS011;15787;49.662;10.162;2024-03-22T12:57:00;4.93;;;2.58;;
28587;SDS011;15787;49.662;10.162;2024-03-22T12:59:32;6.82;;;2.75;;
28587;SDS011;15787;49.662;10.162;2024-03-22T13:02:03;4.57;;;3.15;;
28587;SDS011;15787;49.662;10.162;2024-03-22T13:04:36;5.07;;;3.03;;
28587;SDS011;15787;49.662;10.162;2024-03-22T13:07:09;3.92;;;2.30;;
28587;SDS011;15787;49.662;10.162;2024-03-22T13:09:41;4.35;;;2.13;;
28587;SDS011;15787;49.662;10.162;2024-03-22T13:12:12;6.10;;;2.90;;
28587;SDS011;15787;49.662;10.162;2024-03-22T13:14:44;5.88;;;2.33;;
28587;SDS011;15787;49.662;10.162;2024-03-22T13:17:16;6.68;;;3.00;;
28587;SDS011;15787;49.662;10.162;2024-03-22T13:19:49;5.30;;;2.88;;
28587;SDS011;15787;49.662;10.162;2024-03-22T13:22:22;12.70;;;3.72;;
28587;SDS011;15787;49.662;10.162;2024-03-22T13:24:54;6.05;;;2.40;;
28587;SDS011;15787;49.662;10.162;2024-03-22T13:27:26;4.85;;;2.20;;
28587;SDS011;15787;49.662;10.162;2024-03-22T13:29:59;3.75;;;2.30;;
28587;SDS011;15787;49.662;10.162;2024-03-22T13:32:30;4.65;;;2.30;;
28587;SDS011;15787;49.662;10.162;2024-03-22T13:35:02;4.22;;;2.70;;
28587;SDS011;15787;49.662;10.162;2024-03-22T13:37:34;4.65;;;2.10;;
28587;SDS011;15787;49.662;10.162;2024-03-22T13:40:07;3.75;;;1.95;;
28587;SDS011;15787;49.662;10.162;2024-03-22T13:42:39;3.75;;;2.20;;
28587;SDS011;15787;49.662;10.162;2024-03-22T13:45:11;3.50;;;1.88;;
28587;SDS011;15787;49.662;10.162;2024-03-22T13:47:42;3.58;;;1.83;;
28587;SDS011;15787;49.662;10.162;2024-03-22T13:50:15;6.00;;;2.22;;
28587;SDS011;15787;49.662;10.162;2024-03-22T13:52:47;4.07;;;2.08;;
28587;SDS011;15787;49.662;10.162;2024-03-22T13:55:20;3.65;;;2.38;;
28587;SDS011;15787;49.662;10.162;2024-03-22T13:57:51;11.40;;;4.18;;
28587;SDS011;15787;49.662;10.162;2024-03-22T14:00:23;6.68;;;2.90;;
28587;SDS011;15787;49.662;10.162;2024-03-22T14:02:56;7.03;;;3.47;;
28587;SDS011;15787;49.662;10.162;2024-03-22T14:05:28;6.28;;;3.00;;
28587;SDS011;15787;49.662;10.162;2024-03-22T14:08:01;6.38;;;3.00;;
28587;SDS011;15787;49.662;10.162;2024-03-22T14:10:34;5.40;;;3.10;;
28587;SDS011;15787;49.662;10.162;2024-03-22T14:13:05;8.70;;;3.40;;
28587;SDS011;15787;49.662;10.162;2024-03-22T14:15:38;6.55;;;3.50;;
28587;SDS011;15787;49.662;10.162;2024-03-22T14:18:09;9.80;;;3.85;;
28587;SDS011;15787;49.662;10.162;2024-03-22T14:20:41;8.50;;;3.78;;
28587;SDS011;15787;49.662;10.162;2024-03-22T14:23:14;7.38;;;4.32;;
28587;SDS011;15787;49.662;10.162;2024-03-22T14:25:46;6.28;;;3.50;;
28587;SDS011;15787;49.662;10.162;2024-03-22T14:28:19;5.78;;;3.50;;
28587;SDS011;15787;49.662;10.162;2024-03-22T14:30:52;8.38;;;4.40;;
28587;SDS011;15787;49.662;10.162;2024-03-22T14:33:23;8.90;;;4.35;;
28587;SDS011;15787;49.662;10.162;2024-03-22T14:35:55;9.07;;;4.82;;
28587;SDS011;15787;49.662;10.162;2024-03-22T14:38:28;7.78;;;3.85;;
28587;SDS011;15787;49.662;10.162;2024-03-22T14:41:00;6.82;;;4.60;;
28587;SDS011;15787;49.662;10.162;2024-03-22T14:43:31;9.13;;;4.63;;
28587;SDS011;15787;49.662;10.162;2024-03-22T14:46:05;9.40;;;4.82;;
28587;SDS011;15787;49.662;10.162;2024-03-22T14:48:35;11.15;;;5.47;;
28587;SDS011;15787;49.662;10.162;2024-03-22T14:51:08;6.78;;;4.88;;